sensor_id;sensor_type;location;lat;lon;timestamp;pressure;altitude;pressure_sealevel;temperature;humidity
54900;BME280;40801;41.924;25.562;2023-03-23T00:01:22;99539.53;;;11.20;74.25
54900;BME280;40801;41.924;25.562;2023-03-23T00:03:49;99540.63;;;11.19;74.10
54900;BME280;40801;41.924;25.562;2023-03-23T00:06:17;99539.09;;;11.04;75.50
54900;BME280;40801;41.924;25.562;2023-03-23T00:08:50;99536.28;;;11.09;75.23
54900;BME280;40801;41.924;25.562;2023-03-23T00:11:23;99535.03;;;11.15;74.70
54900;BME280;40801;41.924;25.562;2023-03-23T00:13:52;99534.38;;;11.10;75.31
54900;BME280;40801;41.924;25.562;2023-03-23T00:16:20;99537.25;;;11.13;75.19
54900;BME280;40801;41.924;25.562;2023-03-23T00:18:47;99532.47;;;11.10;74.85
54900;BME280;40801;41.924;25.562;2023-03-23T00:21:13;99525.19;;;10.97;75.81
54900;BME280;40801;41.924;25.562;2023-03-23T00:23:39;99537.31;;;11.00;75.51
54900;BME280;40801;41.924;25.562;2023-03-23T00:26:05;99519.78;;;10.97;75.49
54900;BME280;40801;41.924;25.562;2023-03-23T00:28:31;99522.00;;;10.95;75.44
54900;BME280;40801;41.924;25.562;2023-03-23T00:31:01;99532.50;;;10.97;75.62
54900;BME280;40801;41.924;25.562;2023-03-23T00:33:30;99530.59;;;10.97;75.73
54900;BME280;40801;41.924;25.562;2023-03-23T00:35:59;99525.72;;;10.99;75.38
54900;BME280;40801;41.924;25.562;2023-03-23T00:38:24;99523.59;;;10.96;76.17
54900;BME280;40801;41.924;25.562;2023-03-23T00:40:51;99524.59;;;11.00;75.39
54900;BME280;40801;41.924;25.562;2023-03-23T00:43:18;99525.16;;;11.11;74.54
54900;BME280;40801;41.924;25.562;2023-03-23T00:45:44;99521.19;;;11.08;75.14
54900;BME280;40801;41.924;25.562;2023-03-23T00:48:14;99518.38;;;11.13;74.43
54900;BME280;40801;41.924;25.562;2023-03-23T00:50:40;99519.78;;;11.11;74.48
54900;BME280;40801;41.924;25.562;2023-03-23T00:53:06;99515.16;;;11.11;74.50
54900;BME280;40801;41.924;25.562;2023-03-23T00:55:31;99518.53;;;11.17;74.27
54900;BME280;40801;41.924;25.562;2023-03-23T00:57:58;99511.91;;;11.23;73.16
54900;BME280;40801;41.924;25.562;2023-03-23T01:00:24;99512.78;;;11.10;74.50
54900;BME280;40801;41.924;25.562;2023-03-23T01:02:49;99512.09;;;11.04;74.49
54900;BME280;40801;41.924;25.562;2023-03-23T01:05:17;99516.94;;;11.16;73.70
54900;BME280;40801;41.924;25.562;2023-03-23T01:07:43;99507.44;;;11.18;73.80
54900;BME280;40801;41.924;25.562;2023-03-23T01:10:09;99503.94;;;11.18;74.32
54900;BME280;40801;41.924;25.562;2023-03-23T01:12:40;99510.09;;;11.10;74.45
54900;BME280;40801;41.924;25.562;2023-03-23T01:15:06;99508.84;;;11.16;74.56
54900;BME280;40801;41.924;25.562;2023-03-23T01:17:31;99505.22;;;11.21;74.68
54900;BME280;40801;41.924;25.562;2023-03-23T01:19:57;99508.25;;;11.19;75.03
54900;BME280;40801;41.924;25.562;2023-03-23T01:22:22;99508.13;;;11.24;74.87
54900;BME280;40801;41.924;25.562;2023-03-23T01:24:48;99510.50;;;11.26;74.60
54900;BME280;40801;41.924;25.562;2023-03-23T01:27:13;99505.41;;;11.24;74.34
54900;BME280;40801;41.924;25.562;2023-03-23T01:29:39;99510.72;;;11.29;73.87
54900;BME280;40801;41.924;25.562;2023-03-23T01:32:04;99505.50;;;11.33;73.67
54900;BME280;40801;41.924;25.562;2023-03-23T01:34:30;99501.09;;;11.37;73.25
54900;BME280;40801;41.924;25.562;2023-03-23T01:36:56;99497.78;;;11.40;72.90
54900;BME280;40801;41.924;25.562;2023-03-23T01:39:22;99503.16;;;11.40;72.84
54900;BME280;40801;41.924;25.562;2023-03-23T01:41:47;99497.78;;;11.40;73.37
54900;BME280;40801;41.924;25.562;2023-03-23T01:46:42;99490.09;;;11.33;74.26
54900;BME280;40801;41.924;25.562;2023-03-23T01:49:11;99493.00;;;11.37;74.98
54900;BME280;40801;41.924;25.562;2023-03-23T01:52:06;99501.41;;;11.35;75.41
54900;BME280;40801;41.924;25.562;2023-03-23T01:54:36;99501.09;;;11.37;74.81
54900;BME280;40801;41.924;25.562;2023-03-23T01:57:09;99498.56;;;11.40;74.68
54900;BME280;40801;41.924;25.562;2023-03-23T01:59:36;99506.50;;;11.37;75.13
54900;BME280;40801;41.924;25.562;2023-03-23T02:02:03;99501.88;;;11.37;74.88
54900;BME280;40801;41.924;25.562;2023-03-23T02:04:30;99496.44;;;11.29;74.83
54900;BME280;40801;41.924;25.562;2023-03-23T02:06:56;99498.81;;;11.30;74.88
54900;BME280;40801;41.924;25.562;2023-03-23T02:09:24;99501.63;;;11.25;75.22
54900;BME280;40801;41.924;25.562;2023-03-23T02:11:51;99509.13;;;11.28;74.97
54900;BME280;40801;41.924;25.562;2023-03-23T02:14:17;99509.84;;;11.20;75.47
54900;BME280;40801;41.924;25.562;2023-03-23T02:31:02;99528.13;;;11.23;75.69
54900;BME280;40801;41.924;25.562;2023-03-23T02:41:07;99523.38;;;11.06;74.82
54900;BME280;40801;41.924;25.562;2023-03-23T02:43:40;99530.69;;;11.06;75.01
54900;BME280;40801;41.924;25.562;2023-03-23T02:46:08;99530.06;;;11.09;74.55
54900;BME280;40801;41.924;25.562;2023-03-23T02:48:36;99517.38;;;11.09;74.20
54900;BME280;40801;41.924;25.562;2023-03-23T02:51:04;99522.09;;;11.04;74.14
54900;BME280;40801;41.924;25.562;2023-03-23T02:53:33;99519.91;;;11.06;74.32
54900;BME280;40801;41.924;25.562;2023-03-23T02:56:01;99532.41;;;11.02;74.50
54900;BME280;40801;41.924;25.562;2023-03-23T02:58:28;99531.59;;;11.01;74.41
54900;BME280;40801;41.924;25.562;2023-03-23T03:00:54;99538.09;;;11.00;74.30
54900;BME280;40801;41.924;25.562;2023-03-23T03:03:24;99536.72;;;10.89;74.80
54900;BME280;40801;41.924;25.562;2023-03-23T03:08:55;99538.72;;;10.83;75.15
54900;BME280;40801;41.924;25.562;2023-03-23T03:11:25;99536.22;;;10.87;75.12
54900;BME280;40801;41.924;25.562;2023-03-23T03:14:19;99545.28;;;10.91;75.87
54900;BME280;40801;41.924;25.562;2023-03-23T03:16:52;99545.78;;;10.93;74.73
54900;BME280;40801;41.924;25.562;2023-03-23T03:19:26;99541.81;;;10.91;74.70
54900;BME280;40801;41.924;25.562;2023-03-23T03:21:54;99547.50;;;10.89;74.62
54900;BME280;40801;41.924;25.562;2023-03-23T03:24:24;99552.78;;;10.94;74.52
54900;BME280;40801;41.924;25.562;2023-03-23T03:26:52;99544.38;;;10.96;74.50
54900;BME280;40801;41.924;25.562;2023-03-23T03:29:22;99553.38;;;10.91;74.89
54900;BME280;40801;41.924;25.562;2023-03-23T03:31:49;99560.59;;;10.82;77.23
54900;BME280;40801;41.924;25.562;2023-03-23T03:34:16;99555.72;;;10.84;75.67
54900;BME280;40801;41.924;25.562;2023-03-23T03:36:43;99547.31;;;10.85;75.48
54900;BME280;40801;41.924;25.562;2023-03-23T03:39:11;99548.41;;;10.84;75.79
54900;BME280;40801;41.924;25.562;2023-03-23T03:41:39;99557.34;;;10.71;77.81
54900;BME280;40801;41.924;25.562;2023-03-23T03:44:05;99550.41;;;10.79;76.32
54900;BME280;40801;41.924;25.562;2023-03-23T03:46:32;99554.72;;;10.80;76.16
54900;BME280;40801;41.924;25.562;2023-03-23T03:48:59;99550.81;;;10.86;75.94
54900;BME280;40801;41.924;25.562;2023-03-23T03:51:25;99554.78;;;10.89;76.13
54900;BME280;40801;41.924;25.562;2023-03-23T03:53:52;99555.09;;;10.87;75.66
54900;BME280;40801;41.924;25.562;2023-03-23T03:56:17;99558.69;;;10.82;75.88
54900;BME280;40801;41.924;25.562;2023-03-23T03:58:43;99556.31;;;10.67;76.51
54900;BME280;40801;41.924;25.562;2023-03-23T04:01:09;99551.63;;;10.73;75.86
54900;BME280;40801;41.924;25.562;2023-03-23T04:03:36;99545.81;;;10.66;76.69
54900;BME280;40801;41.924;25.562;2023-03-23T04:06:02;99555.44;;;10.72;76.48
54900;BME280;40801;41.924;25.562;2023-03-23T04:08:28;99556.53;;;10.71;76.68
54900;BME280;40801;41.924;25.562;2023-03-23T04:10:54;99554.34;;;10.73;76.34
54900;BME280;40801;41.924;25.562;2023-03-23T04:13:20;99553.22;;;10.74;76.77
54900;BME280;40801;41.924;25.562;2023-03-23T04:15:46;99553.13;;;10.79;76.62
54900;BME280;40801;41.924;25.562;2023-03-23T04:18:11;99560.59;;;10.82;76.87
54900;BME280;40801;41.924;25.562;2023-03-23T04:20:37;99555.63;;;10.75;76.87
54900;BME280;40801;41.924;25.562;2023-03-23T04:23:03;99557.91;;;10.82;76.59
54900;BME280;40801;41.924;25.562;2023-03-23T04:25:28;99570.59;;;10.81;76.77
54900;BME280;40801;41.924;25.562;2023-03-23T04:27:58;99560.13;;;10.80;76.81
54900;BME280;40801;41.924;25.562;2023-03-23T04:30:27;99565.13;;;10.73;76.53
54900;BME280;40801;41.924;25.562;2023-03-23T04:32:52;99576.50;;;10.70;76.54
54900;BME280;40801;41.924;25.562;2023-03-23T04:35:21;99571.91;;;10.70;76.93
54900;BME280;40801;41.924;25.562;2023-03-23T04:37:47;99569.72;;;10.72;76.42
54900;BME280;40801;41.924;25.562;2023-03-23T04:40:15;99571.81;;;10.75;76.48
54900;BME280;40801;41.924;25.562;2023-03-23T04:42:42;99575.78;;;10.78;76.39
54900;BME280;40801;41.924;25.562;2023-03-23T04:45:17;99578.69;;;10.81;76.68
54900;BME280;40801;41.924;25.562;2023-03-23T04:47:48;99585.28;;;10.75;77.05
54900;BME280;40801;41.924;25.562;2023-03-23T04:50:20;99590.28;;;10.82;76.93
54900;BME280;40801;41.924;25.562;2023-03-23T04:52:47;99590.78;;;10.84;76.64
54900;BME280;40801;41.924;25.562;2023-03-23T04:55:13;99594.56;;;10.83;76.99
54900;BME280;40801;41.924;25.562;2023-03-23T04:57:39;99594.38;;;10.79;77.01
54900;BME280;40801;41.924;25.562;2023-03-23T05:00:06;99603.16;;;10.85;77.06
54900;BME280;40801;41.924;25.562;2023-03-23T05:02:37;99600.97;;;10.87;77.08
54900;BME280;40801;41.924;25.562;2023-03-23T05:05:06;99592.75;;;10.92;76.56
54900;BME280;40801;41.924;25.562;2023-03-23T05:07:31;99591.06;;;10.96;76.39
54900;BME280;40801;41.924;25.562;2023-03-23T05:09:57;99597.66;;;11.04;76.50
54900;BME280;40801;41.924;25.562;2023-03-23T05:12:22;99604.84;;;11.08;76.45
54900;BME280;40801;41.924;25.562;2023-03-23T05:14:47;99601.66;;;11.06;76.56
54900;BME280;40801;41.924;25.562;2023-03-23T05:17:14;99610.75;;;11.10;76.46
54900;BME280;40801;41.924;25.562;2023-03-23T05:19:42;99613.03;;;11.17;75.87
54900;BME280;40801;41.924;25.562;2023-03-23T05:22:09;99620.13;;;11.13;76.19
54900;BME280;40801;41.924;25.562;2023-03-23T05:24:38;99621.66;;;11.05;76.08
54900;BME280;40801;41.924;25.562;2023-03-23T05:27:03;99618.44;;;11.03;76.64
54900;BME280;40801;41.924;25.562;2023-03-23T05:29:29;99620.25;;;11.08;76.31
54900;BME280;40801;41.924;25.562;2023-03-23T05:31:56;99617.53;;;11.08;75.52
54900;BME280;40801;41.924;25.562;2023-03-23T05:34:26;99624.41;;;11.14;75.86
54900;BME280;40801;41.924;25.562;2023-03-23T05:36:52;99620.22;;;11.22;75.65
54900;BME280;40801;41.924;25.562;2023-03-23T05:39:18;99627.31;;;11.31;75.51
54900;BME280;40801;41.924;25.562;2023-03-23T05:41:44;99622.91;;;11.35;75.41
54900;BME280;40801;41.924;25.562;2023-03-23T05:44:09;99617.06;;;11.42;75.09
54900;BME280;40801;41.924;25.562;2023-03-23T05:46:35;99626.03;;;11.51;74.91
54900;BME280;40801;41.924;25.562;2023-03-23T05:49:00;99618.06;;;11.46;74.92
54900;BME280;40801;41.924;25.562;2023-03-23T05:51:26;99628.97;;;11.41;75.18
54900;BME280;40801;41.924;25.562;2023-03-23T05:53:51;99628.66;;;11.42;74.64
54900;BME280;40801;41.924;25.562;2023-03-23T05:56:17;99631.00;;;11.35;75.13
54900;BME280;40801;41.924;25.562;2023-03-23T05:58:43;99635.38;;;11.45;74.84
54900;BME280;40801;41.924;25.562;2023-03-23T06:01:08;99634.88;;;11.43;74.85
54900;BME280;40801;41.924;25.562;2023-03-23T06:03:34;99632.25;;;11.52;74.19
54900;BME280;40801;41.924;25.562;2023-03-23T06:06:02;99633.63;;;11.63;74.15
54900;BME280;40801;41.924;25.562;2023-03-23T06:08:28;99639.69;;;11.68;74.46
54900;BME280;40801;41.924;25.562;2023-03-23T06:10:54;99639.47;;;11.78;74.04
54900;BME280;40801;41.924;25.562;2023-03-23T06:13:20;99645.97;;;11.77;74.47
54900;BME280;40801;41.924;25.562;2023-03-23T06:15:46;99648.19;;;11.75;74.35
54900;BME280;40801;41.924;25.562;2023-03-23T06:18:13;99654.06;;;11.77;73.93
54900;BME280;40801;41.924;25.562;2023-03-23T06:20:39;99655.97;;;11.77;73.49
54900;BME280;40801;41.924;25.562;2023-03-23T06:23:05;99650.81;;;11.67;74.10
54900;BME280;40801;41.924;25.562;2023-03-23T06:25:32;99653.00;;;11.78;74.00
54900;BME280;40801;41.924;25.562;2023-03-23T06:27:58;99650.97;;;11.84;73.85
54900;BME280;40801;41.924;25.562;2023-03-23T06:30:24;99667.44;;;11.96;73.62
54900;BME280;40801;41.924;25.562;2023-03-23T06:32:49;99662.41;;;12.03;73.49
54900;BME280;40801;41.924;25.562;2023-03-23T06:35:16;99665.56;;;11.97;73.49
54900;BME280;40801;41.924;25.562;2023-03-23T06:37:41;99664.00;;;12.04;72.79
54900;BME280;40801;41.924;25.562;2023-03-23T06:40:08;99668.38;;;11.92;73.21
54900;BME280;40801;41.924;25.562;2023-03-23T06:42:35;99668.88;;;11.94;72.85
54900;BME280;40801;41.924;25.562;2023-03-23T06:45:01;99666.06;;;11.85;72.60
54900;BME280;40801;41.924;25.562;2023-03-23T06:47:27;99667.78;;;11.81;72.83
54900;BME280;40801;41.924;25.562;2023-03-23T06:49:56;99673.91;;;11.87;72.61
54900;BME280;40801;41.924;25.562;2023-03-23T06:52:22;99677.28;;;11.92;72.73
54900;BME280;40801;41.924;25.562;2023-03-23T06:54:49;99673.53;;;12.02;72.10
54900;BME280;40801;41.924;25.562;2023-03-23T06:57:15;99676.53;;;12.00;72.37
54900;BME280;40801;41.924;25.562;2023-03-23T06:59:40;99684.03;;;12.03;72.66
54900;BME280;40801;41.924;25.562;2023-03-23T07:02:09;99682.00;;;12.09;72.22
54900;BME280;40801;41.924;25.562;2023-03-23T07:04:37;99690.19;;;12.18;71.92
54900;BME280;40801;41.924;25.562;2023-03-23T07:07:02;99692.28;;;12.21;71.86
54900;BME280;40801;41.924;25.562;2023-03-23T07:09:28;99684.72;;;12.31;71.49
54900;BME280;40801;41.924;25.562;2023-03-23T07:11:53;99692.19;;;12.34;71.77
54900;BME280;40801;41.924;25.562;2023-03-23T07:14:19;99692.50;;;12.33;71.95
54900;BME280;40801;41.924;25.562;2023-03-23T07:16:44;99677.94;;;12.43;71.54
54900;BME280;40801;41.924;25.562;2023-03-23T07:19:10;99685.13;;;12.47;72.05
54900;BME280;40801;41.924;25.562;2023-03-23T07:21:36;99687.22;;;12.50;71.73
54900;BME280;40801;41.924;25.562;2023-03-23T07:24:02;99691.56;;;12.60;71.31
54900;BME280;40801;41.924;25.562;2023-03-23T07:26:27;99688.53;;;12.61;71.51
54900;BME280;40801;41.924;25.562;2023-03-23T07:28:52;99688.16;;;12.77;71.22
54900;BME280;40801;41.924;25.562;2023-03-23T07:31:18;99686.63;;;12.93;70.46
54900;BME280;40801;41.924;25.562;2023-03-23T07:33:43;99693.69;;;13.02;70.79
54900;BME280;40801;41.924;25.562;2023-03-23T07:36:09;99689.63;;;13.22;70.16
54900;BME280;40801;41.924;25.562;2023-03-23T07:38:35;99690.41;;;13.23;70.42
54900;BME280;40801;41.924;25.562;2023-03-23T07:41:02;99692.06;;;13.41;69.88
54900;BME280;40801;41.924;25.562;2023-03-23T07:43:27;99700.19;;;13.50;69.57
54900;BME280;40801;41.924;25.562;2023-03-23T07:45:53;99700.22;;;13.58;69.85
54900;BME280;40801;41.924;25.562;2023-03-23T07:48:19;99696.72;;;13.75;69.28
54900;BME280;40801;41.924;25.562;2023-03-23T07:50:44;99707.09;;;13.82;69.11
54900;BME280;40801;41.924;25.562;2023-03-23T07:53:10;99713.00;;;13.84;68.76
54900;BME280;40801;41.924;25.562;2023-03-23T07:55:35;99715.22;;;13.82;68.64
54900;BME280;40801;41.924;25.562;2023-03-23T07:58:01;99713.47;;;13.69;68.51
54900;BME280;40801;41.924;25.562;2023-03-23T08:00:26;99716.03;;;13.65;68.54
54900;BME280;40801;41.924;25.562;2023-03-23T08:02:56;99716.19;;;13.60;69.17
54900;BME280;40801;41.924;25.562;2023-03-23T08:05:23;99721.28;;;13.61;69.40
54900;BME280;40801;41.924;25.562;2023-03-23T08:07:52;99721.88;;;13.50;70.07
54900;BME280;40801;41.924;25.562;2023-03-23T08:10:20;99729.19;;;13.41;69.73
54900;BME280;40801;41.924;25.562;2023-03-23T08:12:51;99729.06;;;13.54;69.29
54900;BME280;40801;41.924;25.562;2023-03-23T08:15:17;99729.41;;;13.70;69.41
54900;BME280;40801;41.924;25.562;2023-03-23T08:17:42;99720.81;;;13.85;68.86
54900;BME280;40801;41.924;25.562;2023-03-23T08:20:10;99713.97;;;14.14;68.33
54900;BME280;40801;41.924;25.562;2023-03-23T08:22:40;99718.75;;;14.17;68.09
54900;BME280;40801;41.924;25.562;2023-03-23T08:25:08;99715.56;;;14.32;67.51
54900;BME280;40801;41.924;25.562;2023-03-23T08:27:34;99722.56;;;14.07;67.88
54900;BME280;40801;41.924;25.562;2023-03-23T08:29:59;99726.25;;;14.03;68.38
54900;BME280;40801;41.924;25.562;2023-03-23T08:32:25;99728.16;;;14.11;68.05
54900;BME280;40801;41.924;25.562;2023-03-23T08:34:52;99737.13;;;14.20;68.21
54900;BME280;40801;41.924;25.562;2023-03-23T08:37:17;99729.44;;;14.05;68.30
54900;BME280;40801;41.924;25.562;2023-03-23T08:39:43;99730.69;;;13.81;68.61
54900;BME280;40801;41.924;25.562;2023-03-23T08:42:09;99727.84;;;14.04;68.27
54900;BME280;40801;41.924;25.562;2023-03-23T08:44:35;99731.81;;;14.32;67.82
54900;BME280;40801;41.924;25.562;2023-03-23T08:47:02;99729.09;;;14.41;67.81
54900;BME280;40801;41.924;25.562;2023-03-23T08:49:28;99736.44;;;14.75;67.22
54900;BME280;40801;41.924;25.562;2023-03-23T08:51:56;99730.03;;;14.79;66.44
54900;BME280;40801;41.924;25.562;2023-03-23T08:54:21;99730.06;;;15.09;65.85
54900;BME280;40801;41.924;25.562;2023-03-23T08:56:46;99731.38;;;15.32;65.10
54900;BME280;40801;41.924;25.562;2023-03-23T08:59:12;99735.63;;;15.50;64.53
54900;BME280;40801;41.924;25.562;2023-03-23T09:01:38;99736.28;;;15.47;64.13
54900;BME280;40801;41.924;25.562;2023-03-23T09:04:03;99740.66;;;15.40;63.88
54900;BME280;40801;41.924;25.562;2023-03-23T09:06:29;99730.84;;;15.18;64.01
54900;BME280;40801;41.924;25.562;2023-03-23T09:08:55;99739.31;;;15.16;64.34
54900;BME280;40801;41.924;25.562;2023-03-23T09:11:21;99737.59;;;15.41;64.39
54900;BME280;40801;41.924;25.562;2023-03-23T09:13:47;99731.56;;;15.65;64.32
54900;BME280;40801;41.924;25.562;2023-03-23T09:16:12;99734.91;;;15.92;62.78
54900;BME280;40801;41.924;25.562;2023-03-23T09:18:38;99737.22;;;16.02;62.22
54900;BME280;40801;41.924;25.562;2023-03-23T09:21:04;99733.50;;;16.06;61.43
54900;BME280;40801;41.924;25.562;2023-03-23T09:23:30;99733.72;;;16.01;61.60
54900;BME280;40801;41.924;25.562;2023-03-23T09:25:56;99728.00;;;16.15;60.45
54900;BME280;40801;41.924;25.562;2023-03-23T09:28:22;99729.69;;;16.40;59.91
54900;BME280;40801;41.924;25.562;2023-03-23T09:30:47;99728.84;;;16.28;59.67
54900;BME280;40801;41.924;25.562;2023-03-23T09:33:14;99729.09;;;16.35;59.02
54900;BME280;40801;41.924;25.562;2023-03-23T09:35:40;99723.38;;;16.49;58.54
54900;BME280;40801;41.924;25.562;2023-03-23T09:38:09;99724.31;;;16.53;59.03
54900;BME280;40801;41.924;25.562;2023-03-23T09:40:47;99726.09;;;16.49;58.64
54900;BME280;40801;41.924;25.562;2023-03-23T09:51:37;99735.09;;;16.61;57.37
54900;BME280;40801;41.924;25.562;2023-03-23T09:54:26;99729.13;;;16.68;55.77
54900;BME280;40801;41.924;25.562;2023-03-23T09:56:53;99721.13;;;16.84;56.93
54900;BME280;40801;41.924;25.562;2023-03-23T10:00:11;99723.16;;;16.87;55.85
54900;BME280;40801;41.924;25.562;2023-03-23T10:02:43;99722.25;;;16.83;55.60
54900;BME280;40801;41.924;25.562;2023-03-23T10:05:31;99718.63;;;16.91;54.30
54900;BME280;40801;41.924;25.562;2023-03-23T10:07:58;99718.09;;;17.10;55.04
54900;BME280;40801;41.924;25.562;2023-03-23T10:10:32;99718.28;;;17.04;54.58
54900;BME280;40801;41.924;25.562;2023-03-23T10:13:20;99715.75;;;16.75;53.91
54900;BME280;40801;41.924;25.562;2023-03-23T10:15:49;99713.88;;;17.12;54.68
54900;BME280;40801;41.924;25.562;2023-03-23T10:18:36;99711.09;;;17.85;53.14
54900;BME280;40801;41.924;25.562;2023-03-23T10:21:02;99713.28;;;18.92;53.28
54900;BME280;40801;41.924;25.562;2023-03-23T10:29:01;99705.66;;;19.48;48.58
54900;BME280;40801;41.924;25.562;2023-03-23T10:32:09;99702.84;;;19.44;45.82
54900;BME280;40801;41.924;25.562;2023-03-23T10:34:52;99698.88;;;19.42;48.19
54900;BME280;40801;41.924;25.562;2023-03-23T10:37:34;99702.16;;;19.16;47.79
54900;BME280;40801;41.924;25.562;2023-03-23T10:40:05;99693.00;;;19.08;48.30
54900;BME280;40801;41.924;25.562;2023-03-23T10:42:36;99703.66;;;18.82;48.31
54900;BME280;40801;41.924;25.562;2023-03-23T10:45:29;99689.88;;;18.63;49.15
54900;BME280;40801;41.924;25.562;2023-03-23T10:48:22;99695.09;;;18.40;49.92
54900;BME280;40801;41.924;25.562;2023-03-23T10:50:54;99692.53;;;18.31;50.39
54900;BME280;40801;41.924;25.562;2023-03-23T10:53:23;99697.25;;;17.78;49.84
54900;BME280;40801;41.924;25.562;2023-03-23T10:55:49;99691.94;;;17.57;50.27
54900;BME280;40801;41.924;25.562;2023-03-23T10:58:32;99697.75;;;17.44;51.25
54900;BME280;40801;41.924;25.562;2023-03-23T11:01:00;99695.25;;;17.26;51.24
54900;BME280;40801;41.924;25.562;2023-03-23T11:03:40;99699.13;;;17.13;52.10
54900;BME280;40801;41.924;25.562;2023-03-23T11:06:08;99686.84;;;17.19;51.91
54900;BME280;40801;41.924;25.562;2023-03-23T11:09:08;99683.34;;;17.19;51.73
54900;BME280;40801;41.924;25.562;2023-03-23T11:11:57;99682.75;;;17.25;52.19
54900;BME280;40801;41.924;25.562;2023-03-23T11:17:03;99686.63;;;17.00;51.61
54900;BME280;40801;41.924;25.562;2023-03-23T11:19:36;99686.03;;;16.94;52.30
54900;BME280;40801;41.924;25.562;2023-03-23T11:22:12;99682.41;;;16.90;52.46
54900;BME280;40801;41.924;25.562;2023-03-23T11:24:45;99671.78;;;16.64;52.81
54900;BME280;40801;41.924;25.562;2023-03-23T11:27:12;99673.38;;;16.65;52.80
54900;BME280;40801;41.924;25.562;2023-03-23T11:29:51;99676.16;;;16.45;53.25
54900;BME280;40801;41.924;25.562;2023-03-23T11:32:18;99674.75;;;16.26;54.00
54900;BME280;40801;41.924;25.562;2023-03-23T11:34:56;99677.41;;;16.14;54.28
54900;BME280;40801;41.924;25.562;2023-03-23T11:37:42;99669.16;;;15.90;55.05
54900;BME280;40801;41.924;25.562;2023-03-23T11:42:47;99666.72;;;15.76;55.43
54900;BME280;40801;41.924;25.562;2023-03-23T11:50:45;99659.75;;;15.66;56.33
54900;BME280;40801;41.924;25.562;2023-03-23T11:53:37;99658.16;;;15.65;56.34
54900;BME280;40801;41.924;25.562;2023-03-23T11:56:24;99652.19;;;15.72;55.83
54900;BME280;40801;41.924;25.562;2023-03-23T11:58:57;99654.00;;;15.68;56.03
54900;BME280;40801;41.924;25.562;2023-03-23T12:07:03;99653.59;;;15.78;56.00
54900;BME280;40801;41.924;25.562;2023-03-23T12:09:49;99654.72;;;15.77;56.16
54900;BME280;40801;41.924;25.562;2023-03-23T12:26:16;99647.97;;;15.33;57.95
54900;BME280;40801;41.924;25.562;2023-03-23T12:42:26;99645.50;;;15.90;57.22
54900;BME280;40801;41.924;25.562;2023-03-23T12:45:25;99646.47;;;16.06;56.58
54900;BME280;40801;41.924;25.562;2023-03-23T12:48:02;99641.25;;;16.14;55.79
54900;BME280;40801;41.924;25.562;2023-03-23T12:50:33;99653.91;;;16.30;56.01
54900;BME280;40801;41.924;25.562;2023-03-23T12:53:13;99648.03;;;16.07;56.31
54900;BME280;40801;41.924;25.562;2023-03-23T12:55:46;99642.38;;;16.13;56.08
54900;BME280;40801;41.924;25.562;2023-03-23T12:58:26;99639.78;;;16.16;56.03
54900;BME280;40801;41.924;25.562;2023-03-23T13:01:03;99640.09;;;16.35;56.32
54900;BME280;40801;41.924;25.562;2023-03-23T13:03:51;99636.38;;;16.52;55.59
54900;BME280;40801;41.924;25.562;2023-03-23T13:06:44;99632.59;;;16.78;55.37
54900;BME280;40801;41.924;25.562;2023-03-23T13:11:42;99628.03;;;16.69;54.42
54900;BME280;40801;41.924;25.562;2023-03-23T13:19:44;99627.44;;;16.64;54.63
54900;BME280;40801;41.924;25.562;2023-03-23T13:22:37;99627.44;;;16.64;54.27
54900;BME280;40801;41.924;25.562;2023-03-23T13:25:18;99623.34;;;17.43;53.25
54900;BME280;40801;41.924;25.562;2023-03-23T13:27:58;99620.53;;;17.80;52.34
54900;BME280;40801;41.924;25.562;2023-03-23T13:30:25;99612.53;;;17.87;51.01
54900;BME280;40801;41.924;25.562;2023-03-23T13:33:11;99610.81;;;17.94;51.08
54900;BME280;40801;41.924;25.562;2023-03-23T13:35:38;99622.09;;;17.93;51.09
54900;BME280;40801;41.924;25.562;2023-03-23T13:38:18;99623.94;;;17.77;51.00
54900;BME280;40801;41.924;25.562;2023-03-23T13:40:45;99626.44;;;17.82;51.24
54900;BME280;40801;41.924;25.562;2023-03-23T13:43:11;99610.84;;;17.82;51.19
54900;BME280;40801;41.924;25.562;2023-03-23T13:45:46;99623.19;;;17.64;50.74
54900;BME280;40801;41.924;25.562;2023-03-23T13:50:57;99619.13;;;17.33;51.69
54900;BME280;40801;41.924;25.562;2023-03-23T13:53:29;99619.63;;;17.36;51.84
54900;BME280;40801;41.924;25.562;2023-03-23T13:56:52;99613.69;;;17.33;51.46
54900;BME280;40801;41.924;25.562;2023-03-23T13:58:53;99613.81;;;17.25;51.81
54900;BME280;40801;41.924;25.562;2023-03-23T14:01:34;99621.22;;;17.00;52.51
54900;BME280;40801;41.924;25.562;2023-03-23T14:04:02;99612.50;;;17.07;52.23
54900;BME280;40801;41.924;25.562;2023-03-23T14:06:34;99608.28;;;17.09;52.09
54900;BME280;40801;41.924;25.562;2023-03-23T14:09:15;99603.75;;;17.01;51.80
54900;BME280;40801;41.924;25.562;2023-03-23T14:11:57;99611.72;;;16.82;52.32
54900;BME280;40801;41.924;25.562;2023-03-23T14:14:31;99616.00;;;16.95;52.43
54900;BME280;40801;41.924;25.562;2023-03-23T14:17:11;99612.38;;;16.91;51.52
54900;BME280;40801;41.924;25.562;2023-03-23T14:19:44;99606.72;;;16.84;50.62
54900;BME280;40801;41.924;25.562;2023-03-23T14:22:38;99615.31;;;16.98;49.12
54900;BME280;40801;41.924;25.562;2023-03-23T14:25:17;99623.28;;;16.91;49.56
54900;BME280;40801;41.924;25.562;2023-03-23T14:27:46;99628.28;;;16.89;49.81
54900;BME280;40801;41.924;25.562;2023-03-23T14:30:23;99624.75;;;16.88;49.29
54900;BME280;40801;41.924;25.562;2023-03-23T14:32:51;99620.31;;;17.20;49.12
54900;BME280;40801;41.924;25.562;2023-03-23T14:35:26;99618.59;;;17.28;48.14
54900;BME280;40801;41.924;25.562;2023-03-23T14:37:54;99618.81;;;17.23;47.95
54900;BME280;40801;41.924;25.562;2023-03-23T14:40:21;99629.84;;;17.26;48.29